Time;durP1;ratioP1;P1;durP2;ratioP2;P2;SDS_P1;SDS_P2;PMS_P1;PMS_P2;Temp;Humidity;BMP_temperature;BMP_pressure;BME280_temperature;BME280_humidity;BME280_pressure;Samples;Min_cycle;Max_cycle;Signal;HPM_P1;HPM_P2
2022/10/16 00:00:36;;;;;;;;;3.00;2.00;;;;;17.94;63.16;100538.16;5078824;27;45423;-43
2022/10/16 00:03:02;;;;;;;;;2.75;1.00;;;;;17.93;63.37;100543.53;5061163;27;45405;-46
2022/10/16 00:05:27;;;;;;;;;2.25;1.00;;;;;17.93;63.32;100543.53;5092328;27;45328;-44
2022/10/16 00:07:53;;;;;;;;;2.00;2.00;;;;;17.93;63.40;100548.84;5059484;27;47764;-46
2022/10/16 00:10:18;;;;;;;;;2.75;2.00;;;;;17.90;63.42;100541.09;5098349;27;45458;-44
2022/10/16 00:12:43;;;;;;;;;2.50;2.50;;;;;17.89;63.17;100537.59;5094812;27;48138;-44
2022/10/16 00:15:09;;;;;;;;;4.00;2.00;;;;;17.89;63.12;100539.41;5097914;27;70508;-43
2022/10/16 00:17:34;;;;;;;;;4.00;2.00;;;;;17.88;63.20;100548.28;5098919;27;46268;-44
2022/10/16 00:20:00;;;;;;;;;2.00;2.00;;;;;17.89;63.34;100555.28;5099086;27;45698;-46
2022/10/16 00:22:25;;;;;;;;;2.00;2.00;;;;;17.89;63.76;100572.00;5074672;27;45384;-45
2022/10/16 00:24:51;;;;;;;;;3.00;2.00;;;;;17.91;63.57;100574.56;5069459;27;45494;-44
2022/10/16 00:27:16;;;;;;;;;3.00;2.00;;;;;17.91;63.57;100569.28;5078283;27;45324;-46
2022/10/16 00:29:42;;;;;;;;;2.75;2.00;;;;;17.92;63.30;100571.81;5093064;27;45213;-47
2022/10/16 00:32:07;;;;;;;;;3.00;3.00;;;;;17.92;63.34;100560.38;5090857;27;45595;-43
2022/10/16 00:34:32;;;;;;;;;2.00;2.00;;;;;17.92;63.31;100561.25;5076720;27;55060;-43
2022/10/16 00:36:58;;;;;;;;;2.25;2.00;;;;;17.93;63.30;100570.88;5077756;27;45370;-45
2022/10/16 00:39:24;;;;;;;;;3.25;2.00;;;;;17.94;63.14;100561.16;5085866;27;55100;-43
2022/10/16 00:41:50;;;;;;;;;1.75;1.75;;;;;17.94;63.22;100577.03;5098372;27;45487;-44
2022/10/16 00:44:41;;;;;;;;;2.00;2.00;;;;;17.95;63.49;100581.38;5082346;27;45277;-44
2022/10/16 00:47:10;;;;;;;;;3.00;1.00;;;;;17.97;63.02;100579.47;5078565;27;46271;-46
2022/10/16 00:49:35;;;;;;;;;0.00;0.00;;;;;17.95;63.35;100570.78;5097966;27;45762;-45
2022/10/16 00:52:00;;;;;;;;;2.00;2.00;;;;;17.94;63.33;100580.53;5092330;27;69327;-44
2022/10/16 00:54:28;;;;;;;;;24.25;17.00;;;;;17.94;63.10;100591.13;5077741;27;61497;-45
2022/10/16 00:56:54;;;;;;;;;11.50;7.50;;;;;17.93;63.31;100575.31;5078261;27;46730;-46
2022/10/16 00:59:24;;;;;;;;;6.50;4.25;;;;;17.93;63.48;100575.31;5077965;28;45881;-44
2022/10/16 01:01:50;;;;;;;;;5.25;5.00;;;;;17.94;63.42;100572.59;5071432;27;45321;-44
2022/10/16 01:04:15;;;;;;;;;23.00;15.00;;;;;17.96;63.56;100569.84;5094414;27;45460;-45
2022/10/16 01:06:49;;;;;;;;;9.00;4.75;;;;;17.97;62.92;100567.13;5076162;27;47917;-47
2022/10/16 01:09:38;;;;;;;;;5.25;5.00;;;;;17.96;63.37;100569.84;5096196;27;45736;-44
2022/10/16 01:12:28;;;;;;;;;8.00;5.00;;;;;17.98;63.46;100567.97;5092429;27;45208;-45
2022/10/16 01:14:59;;;;;;;;;1.00;1.00;;;;;17.98;63.33;100587.34;5076065;27;45380;-47
2022/10/16 01:17:37;;;;;;;;;2.00;1.00;;;;;17.96;63.29;100586.56;5072303;27;46289;-47
2022/10/16 01:20:27;;;;;;;;;2.75;2.75;;;;;17.97;63.19;100598.00;5078595;27;45376;-44
2022/10/16 01:22:58;;;;;;;;;2.00;2.00;;;;;17.95;63.27;100605.19;5072501;27;45340;-45
2022/10/16 01:25:56;;;;;;;;;3.25;2.25;;;;;17.96;63.05;100604.25;5091218;27;45367;-43
2022/10/16 01:28:25;;;;;;;;;2.75;2.50;;;;;17.96;63.18;100596.31;5073381;27;46177;-44
2022/10/16 01:30:53;;;;;;;;;6.00;3.25;;;;;17.96;63.28;100588.38;5076533;27;46901;-45
2022/10/16 01:33:25;;;;;;;;;3.25;3.25;;;;;17.97;63.03;100598.88;5075962;27;45842;-44
2022/10/16 01:35:54;;;;;;;;;2.00;2.00;;;;;17.96;63.13;100599.81;5090389;27;45416;-44
2022/10/16 01:38:25;;;;;;;;;3.00;2.00;;;;;17.98;63.15;100605.03;5100017;27;45658;-43
2022/10/16 01:40:57;;;;;;;;;1.00;1.00;;;;;17.97;63.31;100604.19;5090976;27;45477;-47
2022/10/16 01:43:25;;;;;;;;;2.00;2.00;;;;;17.99;62.84;100601.44;5078635;27;45412;-46
2022/10/16 01:45:51;;;;;;;;;2.25;1.25;;;;;17.97;63.12;100608.59;5094472;27;45248;-47
2022/10/16 01:48:18;;;;;;;;;4.25;2.00;;;;;17.95;63.17;100595.44;5076121;28;74170;-49
2022/10/16 01:50:44;;;;;;;;;2.50;2.00;;;;;17.94;62.92;100588.47;5092575;27;45926;-46
2022/10/16 01:53:12;;;;;;;;;3.00;1.00;;;;;17.96;62.98;100583.09;5083886;27;45325;-49
2022/10/16 01:55:45;;;;;;;;;1.00;0.00;;;;;17.98;63.10;100595.28;5098779;27;45267;-45
2022/10/16 01:58:12;;;;;;;;;1.00;1.00;;;;;17.96;63.05;100593.69;5080639;27;45897;-45
2022/10/16 02:00:40;;;;;;;;;6.00;6.00;;;;;17.96;63.02;100589.22;5091827;27;45477;-47
2022/10/16 02:03:06;;;;;;;;;5.00;3.50;;;;;17.96;63.26;100597.16;5084967;27;45504;-47
2022/10/16 02:05:36;;;;;;;;;3.00;1.75;;;;;17.96;62.87;100591.88;5078075;27;45782;-43
2022/10/16 02:08:02;;;;;;;;;9.00;5.75;;;;;17.98;63.04;100599.72;5070965;27;46956;-44
2022/10/16 02:10:30;;;;;;;;;2.25;2.25;;;;;17.98;62.88;100605.03;5087975;27;47117;-44
2022/10/16 02:13:03;;;;;;;;;3.00;2.00;;;;;17.99;62.80;100599.63;5096252;27;45318;-46
2022/10/16 02:15:29;;;;;;;;;1.50;1.50;;;;;17.98;62.80;100591.78;5065486;27;45273;-42
2022/10/16 02:17:54;;;;;;;;;3.50;2.50;;;;;17.98;62.94;100592.63;5070218;27;47006;-47
2022/10/16 02:20:25;;;;;;;;;3.00;2.00;;;;;17.97;62.81;100612.13;5075621;27;65892;-47
2022/10/16 02:22:52;;;;;;;;;2.00;1.25;;;;;17.97;62.89;100611.25;5092847;27;45395;-46
2022/10/16 02:25:22;;;;;;;;;2.50;1.50;;;;;17.98;62.83;100605.03;5097345;27;60398;-44
2022/10/16 02:27:51;;;;;;;;;1.00;1.00;;;;;17.98;62.81;100597.06;5077877;27;46630;-44
2022/10/16 02:30:23;;;;;;;;;3.00;2.00;;;;;17.99;62.82;100604.09;5098817;27;46725;-47
2022/10/16 02:32:50;;;;;;;;;1.25;1.00;;;;;18.02;62.89;100602.09;5094518;27;45355;-46
2022/10/16 02:35:17;;;;;;;;;0.00;0.00;;;;;18.03;62.62;100603.78;5062846;28;66876;-47
2022/10/16 02:37:43;;;;;;;;;2.00;0.75;;;;;18.03;62.58;100606.44;5048014;28;47602;-45
2022/10/16 02:40:09;;;;;;;;;1.00;1.00;;;;;18.05;62.76;100597.56;5053725;28;45273;-47
2022/10/16 02:42:36;;;;;;;;;1.75;1.75;;;;;18.05;62.64;100600.22;5056988;28;45420;-44
2022/10/16 02:45:02;;;;;;;;;0.25;0.25;;;;;18.07;62.45;100614.22;5050541;28;45542;-45
2022/10/16 02:47:27;;;;;;;;;2.00;0.75;;;;;17.99;62.08;100589.03;5056211;28;46452;-43
2022/10/16 02:49:53;;;;;;;;;1.00;1.00;;;;;18.04;62.14;100602.00;5050311;28;45447;-42
2022/10/16 02:52:18;;;;;;;;;0.00;0.00;;;;;18.02;61.89;100612.69;5049589;28;45490;-43
2022/10/16 02:54:43;;;;;;;;;1.00;1.00;;;;;18.02;62.21;100617.13;5057164;28;67658;-45
2022/10/16 02:57:09;;;;;;;;;1.00;1.00;;;;;18.00;61.75;100619.03;5053369;28;54014;-46
2022/10/16 02:59:34;;;;;;;;;0.00;0.00;;;;;17.96;61.79;100620.16;5055317;28;57235;-42
2022/10/16 03:01:59;;;;;;;;;2.00;1.00;;;;;17.95;61.67;100631.69;5047472;28;46867;-46
2022/10/16 03:04:25;;;;;;;;;1.00;1.00;;;;;17.94;61.57;100627.34;5050779;28;51029;-43
2022/10/16 03:06:50;;;;;;;;;0.75;0.50;;;;;17.94;61.76;100632.63;5044952;28;77666;-47
2022/10/16 03:09:15;;;;;;;;;1.00;0.75;;;;;17.91;61.08;100631.00;5053699;28;55471;-43
2022/10/16 03:11:41;;;;;;;;;0.00;0.00;;;;;17.89;61.53;100630.25;5048679;28;45343;-44
2022/10/16 03:14:06;;;;;;;;;0.75;0.50;;;;;17.87;61.14;100634.78;5032200;28;45577;-42
2022/10/16 03:16:32;;;;;;;;;0.00;0.00;;;;;17.87;61.43;100647.19;5052257;28;46884;-45
2022/10/16 03:18:57;;;;;;;;;2.50;1.00;;;;;17.86;61.21;100629.59;5057518;28;63475;-44
2022/10/16 03:21:22;;;;;;;;;1.00;1.00;;;;;17.86;61.03;100627.78;5056465;28;69400;-43
2022/10/16 03:23:48;;;;;;;;;0.50;0.50;;;;;17.85;60.97;100626.06;5048488;28;64371;-43
2022/10/16 03:26:13;;;;;;;;;2.00;0.50;;;;;17.81;61.01;100629.81;5056965;28;46808;-45
2022/10/16 03:28:38;;;;;;;;;0.00;0.00;;;;;17.79;61.14;100637.84;5046449;28;45325;-45
2022/10/16 03:31:04;;;;;;;;;0.50;0.50;;;;;17.79;61.29;100623.75;5050341;28;69815;-46
2022/10/16 03:33:29;;;;;;;;;0.50;0.25;;;;;17.79;61.20;100603.44;5053548;28;45700;-44
2022/10/16 03:35:54;;;;;;;;;1.00;0.00;;;;;17.81;61.33;100598.03;5080409;27;51583;-42
2022/10/16 03:38:21;;;;;;;;;2.25;0.00;;;;;17.82;61.03;100595.31;5096584;27;69920;-44
2022/10/16 03:40:46;;;;;;;;;3.50;0.50;;;;;17.81;61.05;100601.56;5101181;27;45224;-42
2022/10/16 03:43:11;;;;;;;;;1.00;1.00;;;;;17.81;61.01;100595.41;5063828;27;66686;-45
2022/10/16 03:45:36;;;;;;;;;1.00;0.50;;;;;17.79;61.07;100594.63;5071981;27;73841;-46
2022/10/16 03:48:03;;;;;;;;;2.00;0.00;;;;;17.78;61.05;100603.53;5092631;27;54691;-47
2022/10/16 03:50:28;;;;;;;;;1.75;0.00;;;;;17.74;61.13;100624.03;5084939;27;45536;-47
2022/10/16 03:52:54;;;;;;;;;0.00;0.00;;;;;17.73;61.27;100627.63;5086433;27;45459;-44
2022/10/16 03:55:19;;;;;;;;;0.00;0.00;;;;;17.69;61.36;100628.75;5093727;27;45505;-43
2022/10/16 03:57:44;;;;;;;;;0.00;0.00;;;;;17.69;61.25;100626.09;5052867;27;45447;-41
2022/10/16 04:00:11;;;;;;;;;0.25;0.25;;;;;17.70;61.33;100637.53;5071809;28;52608;-41
2022/10/16 04:02:36;;;;;;;;;1.00;0.00;;;;;17.71;61.34;100633.97;5055774;28;45518;-42
2022/10/16 04:05:01;;;;;;;;;0.00;0.00;;;;;17.73;61.14;100619.69;5107232;27;64275;-43
2022/10/16 04:07:27;;;;;;;;;0.00;0.00;;;;;17.74;61.13;100604.66;5097952;27;60257;-42
2022/10/16 04:09:52;;;;;;;;;0.00;0.00;;;;;17.75;61.19;100606.38;5090997;27;51710;-42
2022/10/16 04:12:17;;;;;;;;;0.25;0.25;;;;;17.76;61.10;100618.63;5096796;27;60759;-41
2022/10/16 04:14:43;;;;;;;;;1.00;0.00;;;;;17.79;61.21;100629.06;5093243;27;66755;-42
2022/10/16 04:17:08;;;;;;;;;2.00;0.25;;;;;17.78;61.06;100628.22;5087645;27;57275;-41
2022/10/16 04:19:33;;;;;;;;;0.00;0.00;;;;;17.77;61.07;100642.38;5080783;27;67900;-46
2022/10/16 04:21:58;;;;;;;;;0.00;0.00;;;;;17.77;61.10;100642.38;5092013;27;69061;-48
2022/10/16 04:24:24;;;;;;;;;1.00;0.00;;;;;17.77;61.29;100639.72;5098779;27;55876;-48
2022/10/16 04:26:49;;;;;;;;;0.00;0.00;;;;;17.78;61.17;100630.00;5076380;27;67316;-47
2022/10/16 04:29:14;;;;;;;;;0.00;0.00;;;;;17.78;61.06;100645.91;5090546;27;45544;-43
2022/10/16 04:31:40;;;;;;;;;0.00;0.00;;;;;17.79;61.05;100651.06;5095607;27;69582;-47
2022/10/16 04:34:05;;;;;;;;;1.50;0.00;;;;;17.80;61.00;100655.44;5084935;27;55412;-48
2022/10/16 04:36:30;;;;;;;;;0.75;0.00;;;;;17.80;61.01;100659.88;5093123;27;73602;-47
2022/10/16 04:38:56;;;;;;;;;0.00;0.00;;;;;17.78;61.09;100675.84;5078382;27;68292;-44
2022/10/16 04:41:21;;;;;;;;;0.50;0.00;;;;;17.78;61.06;100675.84;5099835;27;72789;-47
2022/10/16 04:43:46;;;;;;;;;0.00;0.00;;;;;17.78;61.12;100682.94;5099585;27;45953;-42
2022/10/16 04:46:12;;;;;;;;;0.00;0.00;;;;;17.78;60.86;100686.44;5097425;27;45279;-44
2022/10/16 04:48:37;;;;;;;;;0.00;0.00;;;;;17.76;60.98;100680.38;5094813;27;45288;-43
2022/10/16 04:51:03;;;;;;;;;0.00;0.00;;;;;17.75;60.74;100681.31;5088743;27;54319;-44
2022/10/16 04:53:28;;;;;;;;;0.00;0.00;;;;;17.78;61.11;100691.72;5095043;27;47077;-43
2022/10/16 04:55:53;;;;;;;;;0.00;0.00;;;;;17.78;61.15;100696.19;5087644;27;65796;-48
2022/10/16 04:58:19;;;;;;;;;1.50;0.00;;;;;17.81;61.00;100701.28;5096461;27;45326;-43
2022/10/16 05:00:45;;;;;;;;;2.00;0.00;;;;;17.81;60.89;100706.56;5088468;27;68646;-48
2022/10/16 05:03:12;;;;;;;;;0.00;0.00;;;;;17.79;61.05;100701.38;5092291;27;46171;-48
2022/10/16 05:05:42;;;;;;;;;0.00;0.00;;;;;17.78;61.04;100697.03;5095480;27;45702;-45
2022/10/16 05:08:07;;;;;;;;;0.50;0.50;;;;;17.78;60.97;100710.25;5097535;27;45272;-46
2022/10/16 05:10:33;;;;;;;;;0.00;0.00;;;;;17.79;60.90;100711.94;5097472;27;73314;-43
2022/10/16 05:12:58;;;;;;;;;0.00;0.00;;;;;17.80;61.00;100707.53;5091842;27;74378;-44
2022/10/16 05:15:24;;;;;;;;;0.00;0.00;;;;;17.79;60.93;100716.41;5097755;27;45477;-43
2022/10/16 05:17:55;;;;;;;;;0.00;0.00;;;;;17.78;60.98;100712.06;5093686;27;45502;-44
2022/10/16 05:20:21;;;;;;;;;0.00;0.00;;;;;17.78;60.94;100720.00;5074369;27;45468;-48
2022/10/16 05:22:46;;;;;;;;;1.00;0.00;;;;;17.79;60.93;100721.69;5097923;27;46123;-46
2022/10/16 05:25:11;;;;;;;;;0.00;0.00;;;;;17.78;60.95;100731.44;5086199;27;73175;-44
2022/10/16 05:27:37;;;;;;;;;0.50;0.00;;;;;17.78;60.92;100736.72;5079203;27;45273;-42
2022/10/16 05:30:03;;;;;;;;;0.00;0.00;;;;;17.79;60.71;100749.00;5092278;27;72271;-46
2022/10/16 05:32:28;;;;;;;;;1.00;0.00;;;;;17.79;60.71;100749.00;5093831;27;46131;-42
2022/10/16 05:34:53;;;;;;;;;1.00;0.25;;;;;17.81;60.93;100743.63;5092799;27;66928;-44
2022/10/16 05:37:19;;;;;;;;;1.50;0.50;;;;;17.83;60.90;100741.78;5093221;27;58241;-44
2022/10/16 05:39:44;;;;;;;;;0.00;0.00;;;;;17.83;60.76;100734.69;5094099;27;56869;-44
2022/10/16 05:42:09;;;;;;;;;3.00;0.00;;;;;17.85;60.89;100737.25;5097370;27;74604;-47
2022/10/16 05:44:35;;;;;;;;;0.25;0.00;;;;;17.87;60.90;100731.91;5082784;27;63564;-42
2022/10/16 05:47:00;;;;;;;;;1.50;0.00;;;;;17.87;60.83;100739.84;5077750;27;45502;-45
2022/10/16 05:49:25;;;;;;;;;0.00;0.00;;;;;17.90;60.91;100734.34;5091386;27;62817;-42
2022/10/16 05:51:51;;;;;;;;;1.00;0.00;;;;;17.90;60.77;100739.63;5087987;27;47126;-44
2022/10/16 05:54:16;;;;;;;;;0.00;0.00;;;;;17.88;60.62;100737.06;5095998;27;64719;-46
2022/10/16 05:56:41;;;;;;;;;0.50;0.00;;;;;17.88;60.80;100741.53;5092895;27;56235;-41
2022/10/16 05:59:07;;;;;;;;;2.00;1.00;;;;;17.87;60.68;100735.38;5096240;27;45423;-44
2022/10/16 06:01:33;;;;;;;;;2.00;0.00;;;;;17.82;61.01;100727.66;5090238;27;70451;-43
2022/10/16 06:03:58;;;;;;;;;0.00;0.00;;;;;17.87;60.70;100738.03;5097455;27;45792;-45
2022/10/16 06:06:26;;;;;;;;;0.00;0.00;;;;;17.85;60.66;100745.19;5098609;27;45335;-42
2022/10/16 06:08:52;;;;;;;;;0.00;0.00;;;;;17.83;60.54;100747.91;5091855;27;45523;-42
2022/10/16 06:11:19;;;;;;;;;0.00;0.00;;;;;17.80;60.70;100740.16;5091717;27;45225;-41
2022/10/16 06:13:49;;;;;;;;;0.25;0.00;;;;;17.80;60.86;100753.38;5081612;27;45384;-41
2022/10/16 06:16:15;;;;;;;;;0.00;0.00;;;;;17.79;60.82;100740.22;5067716;27;45425;-41
2022/10/16 06:18:40;;;;;;;;;0.00;0.00;;;;;17.79;60.78;100741.06;5095972;27;45621;-42
2022/10/16 06:21:11;;;;;;;;;0.25;0.25;;;;;17.78;60.72;100742.03;5098970;27;45964;-41
2022/10/16 06:23:36;;;;;;;;;2.00;0.00;;;;;17.76;60.92;100743.91;5098648;27;45649;-42
2022/10/16 06:26:10;;;;;;;;;0.00;0.00;;;;;17.76;60.74;100761.56;5072459;27;45356;-42
2022/10/16 06:28:35;;;;;;;;;0.00;0.00;;;;;17.75;60.94;100759.88;5077054;27;45446;-44
2022/10/16 06:31:02;;;;;;;;;0.00;0.00;;;;;17.74;60.99;100748.44;5099646;27;45403;-42
2022/10/16 06:33:27;;;;;;;;;0.00;0.00;;;;;17.74;60.79;100740.50;5081808;27;45650;-42
2022/10/16 06:35:53;;;;;;;;;0.75;0.00;;;;;17.72;60.98;100739.72;5093930;27;58344;-42
2022/10/16 06:38:18;;;;;;;;;1.00;1.00;;;;;17.72;60.96;100749.47;5102155;27;64571;-44
2022/10/16 06:40:43;;;;;;;;;1.00;0.00;;;;;17.71;60.96;100756.56;5098021;27;67644;-47
2022/10/16 06:43:09;;;;;;;;;1.00;0.00;;;;;17.71;60.79;100750.41;5097960;27;45251;-42
2022/10/16 06:45:34;;;;;;;;;0.25;0.25;;;;;17.67;60.94;100754.16;5086393;27;69234;-45
2022/10/16 06:47:59;;;;;;;;;0.50;0.25;;;;;17.64;61.06;100760.50;5097475;27;65362;-47
2022/10/16 06:50:25;;;;;;;;;1.25;0.25;;;;;17.61;61.15;100750.91;5095592;27;75681;-43
2022/10/16 06:52:50;;;;;;;;;1.00;0.00;;;;;17.62;61.38;100752.63;5094657;27;68185;-43
2022/10/16 06:55:16;;;;;;;;;0.00;0.00;;;;;17.56;61.19;100752.97;5096454;27;45390;-42
2022/10/16 06:57:42;;;;;;;;;1.00;0.00;;;;;17.61;60.92;100769.44;5091191;27;45334;-44
2022/10/16 07:00:08;;;;;;;;;1.00;0.50;;;;;17.61;61.20;100772.09;5091580;27;45640;-47
2022/10/16 07:02:33;;;;;;;;;1.00;0.75;;;;;17.63;61.28;100780.78;5097319;27;45462;-44
2022/10/16 07:04:58;;;;;;;;;1.00;0.00;;;;;17.63;61.40;100788.72;5090639;27;69344;-42
2022/10/16 07:07:26;;;;;;;;;0.00;0.00;;;;;17.64;61.03;100792.25;5097038;27;69154;-44
2022/10/16 07:09:51;;;;;;;;;0.25;0.25;;;;;17.64;61.23;100790.44;5090797;27;47019;-45
2022/10/16 07:12:16;;;;;;;;;0.00;0.00;;;;;17.66;61.01;100785.06;5088500;27;60166;-46
2022/10/16 07:14:42;;;;;;;;;1.00;1.00;;;;;17.68;61.14;100799.06;5087718;27;64600;-43
2022/10/16 07:17:07;;;;;;;;;1.00;1.00;;;;;17.68;61.18;100799.06;5090423;27;69910;-44
2022/10/16 07:19:33;;;;;;;;;0.75;0.75;;;;;17.72;61.22;100805.88;5079515;28;45357;-43
2022/10/16 07:21:58;;;;;;;;;1.00;1.00;;;;;17.75;61.21;100810.16;5079295;27;45229;-44
2022/10/16 07:24:24;;;;;;;;;1.00;1.00;;;;;17.77;61.30;100810.94;5063304;28;45458;-44
2022/10/16 07:26:50;;;;;;;;;2.00;2.00;;;;;17.78;61.39;100813.50;5094428;27;45647;-43
2022/10/16 07:29:18;;;;;;;;;1.00;1.00;;;;;17.81;61.34;100808.03;5094869;27;45337;-43
2022/10/16 07:31:44;;;;;;;;;2.00;1.25;;;;;17.83;61.08;100807.97;5097655;27;45358;-44
2022/10/16 07:34:11;;;;;;;;;0.00;0.00;;;;;17.85;61.05;100808.72;5072936;28;45714;-43
2022/10/16 07:36:36;;;;;;;;;1.00;0.00;;;;;17.88;60.98;100813.00;5086863;27;45582;-43
2022/10/16 07:39:02;;;;;;;;;0.00;0.00;;;;;17.89;60.97;100820.88;5082425;27;45371;-47
2022/10/16 07:41:28;;;;;;;;;0.00;0.00;;;;;17.91;60.83;100831.38;5087090;27;45651;-43
2022/10/16 07:43:54;;;;;;;;;0.00;0.00;;;;;17.91;60.91;100824.28;5089289;27;46933;-43
2022/10/16 07:46:21;;;;;;;;;3.00;2.00;;;;;17.95;60.95;100835.56;5091883;27;45514;-46
2022/10/16 07:48:47;;;;;;;;;0.00;0.00;;;;;17.98;60.74;100848.63;5095152;27;46096;-44
2022/10/16 07:51:15;;;;;;;;;0.00;0.00;;;;;18.00;60.94;100847.59;5089554;27;45500;-43
2022/10/16 07:53:40;;;;;;;;;1.75;0.50;;;;;18.03;60.80;100844.78;5090089;27;46130;-43
2022/10/16 07:56:06;;;;;;;;;0.00;0.00;;;;;18.09;60.69;100842.72;5095211;27;45389;-43
2022/10/16 07:58:33;;;;;;;;;2.00;1.00;;;;;18.15;60.95;100839.72;5080032;27;47282;-43
2022/10/16 08:00:59;;;;;;;;;3.00;2.00;;;;;18.21;61.13;100836.72;5096591;27;45324;-41
2022/10/16 08:03:25;;;;;;;;;6.00;2.00;;;;;18.28;61.04;100843.38;5083548;27;45465;-43
2022/10/16 08:05:51;;;;;;;;;2.00;2.00;;;;;18.36;60.79;100854.41;5101050;27;45146;-43
2022/10/16 08:08:17;;;;;;;;;6.00;4.00;;;;;18.40;60.88;100860.38;5101688;27;46188;-43
2022/10/16 08:10:42;;;;;;;;;3.75;2.75;;;;;18.39;61.00;100869.25;5101079;27;45686;-43
2022/10/16 08:13:08;;;;;;;;;4.00;4.00;;;;;18.37;60.92;100876.44;5082493;27;63511;-42
2022/10/16 08:15:33;;;;;;;;;5.75;4.00;;;;;18.36;61.30;100872.94;5101731;27;45416;-42
2022/10/16 08:18:00;;;;;;;;;6.25;5.00;;;;;18.37;61.11;100877.28;5089361;27;72997;-47
2022/10/16 08:20:27;;;;;;;;;2.50;2.00;;;;;18.36;61.33;100875.59;5101552;27;45680;-45
2022/10/16 08:22:53;;;;;;;;;4.00;4.00;;;;;18.31;61.22;100875.00;5101704;27;45315;-45
2022/10/16 08:25:19;;;;;;;;;3.25;3.00;;;;;18.28;61.33;100871.69;5101317;27;45298;-42
2022/10/16 08:27:44;;;;;;;;;5.25;4.50;;;;;18.29;61.27;100866.28;5079097;28;54906;-43
2022/10/16 08:30:10;;;;;;;;;5.00;4.00;;;;;18.34;61.46;100860.72;5091704;27;48898;-43
2022/10/16 08:32:36;;;;;;;;;6.25;3.50;;;;;18.38;61.27;100849.00;5083194;27;45324;-42
2022/10/16 08:35:01;;;;;;;;;2.50;2.50;;;;;18.40;61.33;100852.44;5095403;27;69545;-46
2022/10/16 08:37:30;;;;;;;;;4.25;3.75;;;;;18.44;61.17;100863.69;5100446;27;72160;-43
2022/10/16 08:39:56;;;;;;;;;3.50;3.00;;;;;18.49;61.24;100867.78;5101305;27;45362;-44
2022/10/16 08:42:31;;;;;;;;;3.00;3.00;;;;;18.54;60.87;100864.88;5100269;27;62797;-42
2022/10/16 08:45:12;;;;;;;;;3.00;3.00;;;;;18.56;60.57;100870.94;5101107;27;45501;-43
2022/10/16 08:47:59;;;;;;;;;2.00;2.00;;;;;18.62;60.61;100872.38;5081399;27;46113;-43
2022/10/16 08:50:27;;;;;;;;;5.00;2.00;;;;;18.68;60.59;100870.22;5098940;27;45794;-43
2022/10/16 08:52:53;;;;;;;;;5.00;5.00;;;;;18.73;60.77;100875.22;5099925;27;45381;-42
2022/10/16 08:55:34;;;;;;;;;11.75;9.00;;;;;18.80;60.49;100881.88;5100895;27;45214;-42
2022/10/16 08:58:00;;;;;;;;;13.25;9.00;;;;;18.86;60.39;100884.22;5100769;27;47127;-43
2022/10/16 09:00:26;;;;;;;;;9.00;6.00;;;;;18.88;60.22;100878.81;5100479;27;45832;-44
2022/10/16 09:03:30;;;;;;;;;5.50;3.75;;;;;18.92;60.32;100885.63;5100305;27;64855;-46
2022/10/16 09:06:01;;;;;;;;;5.50;5.00;;;;;18.92;60.04;100883.84;5096075;27;45515;-44
2022/10/16 09:08:41;;;;;;;;;4.50;3.00;;;;;18.92;60.32;100890.94;5090339;27;45372;-48
2022/10/16 09:11:12;;;;;;;;;3.25;3.00;;;;;18.88;60.25;100894.72;5100666;27;45826;-46
2022/10/16 09:14:14;;;;;;;;;6.50;4.00;;;;;18.89;60.21;100894.66;5081716;27;45254;-46
2022/10/16 09:16:47;;;;;;;;;4.00;4.00;;;;;18.90;60.34;100895.50;5100610;27;45592;-44
2022/10/16 09:19:24;;;;;;;;;7.00;5.00;;;;;18.92;60.63;100891.78;5100433;27;46252;-44
2022/10/16 09:21:50;;;;;;;;;5.00;5.00;;;;;18.85;60.51;100868.41;5081926;27;45701;-47
2022/10/16 09:24:22;;;;;;;;;7.75;5.75;;;;;18.84;60.39;100878.16;5100151;27;45246;-43
2022/10/16 09:26:47;;;;;;;;;7.50;6.50;;;;;18.84;60.42;100877.28;5097141;27;45338;-48
2022/10/16 09:29:14;;;;;;;;;6.00;6.00;;;;;18.86;60.56;100873.59;5077751;28;73923;-48
2022/10/16 09:31:40;;;;;;;;;8.75;6.75;;;;;18.92;60.70;100889.13;5098221;27;45471;-46
2022/10/16 09:34:07;;;;;;;;;7.75;7.00;;;;;18.97;60.61;100887.06;5100763;27;45240;-43
2022/10/16 09:36:40;;;;;;;;;8.00;6.25;;;;;19.01;60.28;100894.84;5099371;27;45218;-48
2022/10/16 09:39:08;;;;;;;;;6.25;6.00;;;;;19.06;60.19;100890.13;5100428;27;46968;-46
2022/10/16 09:41:42;;;;;;;;;14.25;12.25;;;;;19.11;60.48;100885.41;5072499;27;45382;-46
2022/10/16 09:44:25;;;;;;;;;8.00;8.00;;;;;19.21;59.83;100902.47;5093190;27;45261;-43
2022/10/16 09:47:13;;;;;;;;;12.00;10.75;;;;;19.29;60.09;100902.00;5065480;27;45300;-45
2022/10/16 09:49:38;;;;;;;;;9.00;8.00;;;;;19.38;60.11;100897.94;5064647;27;45923;-47
2022/10/16 09:52:15;;;;;;;;;20.50;17.50;;;;;19.46;59.73;100895.63;5099334;27;66682;-46
2022/10/16 09:54:57;;;;;;;;;7.75;7.25;;;;;19.53;59.18;100897.84;5100255;27;45362;-45
2022/10/16 09:57:23;;;;;;;;;78.25;63.25;;;;;19.57;59.44;100885.22;5100075;27;45471;-43
2022/10/16 09:59:56;;;;;;;;;51.00;39.50;;;;;19.62;59.01;100883.13;5078405;28;45385;-46
2022/10/16 10:02:29;;;;;;;;;11.25;10.25;;;;;19.66;58.72;100882.00;5096733;27;45477;-50
2022/10/16 10:04:55;;;;;;;;;4.25;3.25;;;;;19.68;58.65;100872.13;5100252;27;45327;-49
2022/10/16 10:07:26;;;;;;;;;4.00;4.00;;;;;19.70;58.30;100877.34;5100255;27;45272;-43
2022/10/16 10:09:52;;;;;;;;;2.25;2.25;;;;;19.70;58.31;100869.38;5100204;27;45481;-47
2022/10/16 10:12:20;;;;;;;;;3.75;2.25;;;;;19.68;57.88;100877.44;5078290;28;45842;-45
2022/10/16 10:14:48;;;;;;;;;3.00;3.00;;;;;19.69;58.07;100873.00;5070178;28;45276;-44
2022/10/16 10:17:17;;;;;;;;;4.00;3.00;;;;;19.73;57.97;100863.88;5068370;27;45416;-45
2022/10/16 10:19:54;;;;;;;;;5.00;4.25;;;;;19.81;57.84;100868.72;5099970;27;45458;-43
2022/10/16 10:22:32;;;;;;;;;4.25;3.00;;;;;19.87;57.54;100860.38;5065274;27;45584;-45
2022/10/16 10:25:11;;;;;;;;;3.25;3.00;;;;;19.94;58.14;100860.81;5100074;27;45403;-43
2022/10/16 10:28:04;;;;;;;;;2.75;2.00;;;;;19.99;57.70;100862.25;5099978;27;45316;-45
2022/10/16 10:30:57;;;;;;;;;4.25;4.25;;;;;20.05;57.73;100864.50;5099617;27;46219;-44
2022/10/16 10:34:01;;;;;;;;;7.00;6.00;;;;;20.12;57.22;100869.41;5096095;27;45716;-43
2022/10/16 10:36:40;;;;;;;;;11.00;8.25;;;;;20.15;57.12;100866.53;5081655;27;45413;-43
2022/10/16 10:39:32;;;;;;;;;12.25;11.00;;;;;20.19;56.83;100862.75;5099460;27;45395;-44
2022/10/16 10:42:23;;;;;;;;;25.50;18.75;;;;;20.23;56.83;100864.25;5064097;27;47426;-44
2022/10/16 10:45:13;;;;;;;;;10.00;7.25;;;;;20.25;56.73;100863.19;5086129;27;45612;-43
2022/10/16 10:47:53;;;;;;;;;7.50;6.75;;;;;20.29;56.58;100863.81;5099810;27;45401;-43
2022/10/16 10:50:25;;;;;;;;;3.00;3.00;;;;;20.30;56.42;100862.88;5081256;27;45548;-45
2022/10/16 10:53:02;;;;;;;;;2.75;2.75;;;;;20.33;56.55;100868.00;5101488;27;45585;-43
2022/10/16 10:55:57;;;;;;;;;2.75;2.00;;;;;20.33;56.10;100868.00;5081462;27;45748;-43
2022/10/16 10:58:48;;;;;;;;;2.00;2.00;;;;;20.32;56.27;100860.97;5012495;27;45470;-44
2022/10/16 11:01:17;;;;;;;;;1.00;1.00;;;;;20.28;56.80;100856.81;5084885;27;45373;-43
2022/10/16 11:04:09;;;;;;;;;2.00;2.00;;;;;20.26;56.59;100846.28;5102061;27;45453;-41
2022/10/16 11:06:48;;;;;;;;;1.75;1.75;;;;;20.28;56.67;100843.53;5081821;27;45648;-42
2022/10/16 11:09:26;;;;;;;;;0.25;0.25;;;;;20.33;56.94;100849.41;5051527;28;45337;-43
2022/10/16 11:12:15;;;;;;;;;1.50;1.50;;;;;20.36;56.19;100848.34;5097245;27;45382;-44
2022/10/16 11:14:48;;;;;;;;;3.25;2.00;;;;;20.38;56.58;100849.97;5102971;27;45404;-45
2022/10/16 11:17:38;;;;;;;;;2.75;1.50;;;;;20.43;56.90;100854.94;5102761;27;45334;-45
2022/10/16 11:20:13;;;;;;;;;0.00;0.00;;;;;20.49;56.52;100851.91;5098167;27;45303;-46
2022/10/16 11:22:41;;;;;;;;;3.75;1.75;;;;;20.52;56.31;100843.69;5102771;27;45350;-43
2022/10/16 11:25:23;;;;;;;;;2.00;2.00;;;;;20.55;56.41;100845.31;5090453;27;45192;-45
2022/10/16 11:27:57;;;;;;;;;3.00;2.00;;;;;20.57;56.69;100841.56;5101348;27;45610;-47
2022/10/16 11:30:25;;;;;;;;;0.50;0.50;;;;;20.61;56.50;100845.78;5068094;28;45360;-48
2022/10/16 11:33:03;;;;;;;;;1.00;1.00;;;;;20.57;56.72;100841.56;5096822;27;45403;-44